Herbert J Plaisance — WDE6917 — position and weather

sailwx.info

Track history (hours):
 
Tides and Currents Weather Stations Pressure Air Temp Water Temp Dewpoint Dewpoint Depression Visibility Wind Speed Wind Dir Waves Ship Positions

Herbert J Plaisance

More information available from US FCC via Universal Licensing System and Coast Guard Vessel Documentation Center.

Last reported at 2014-Jun-23 09:31 UTC. Time now 2014-Jul-29 08:40 UTC.
Position N 30°04' W 090°53'.
Warning: this ship's position is 35 days out of date.

Length 20 m; draft 3 m.

Type: Towing. MMSI: 367386576.

Date/timePositionNaut miles runAvg speedWind from/ knotsBaromVisibWave heightAir tempDewpointWater temp
2014-Jun-23 09:31N 30°04' W 090°53'5 3.9
2014-Jun-23 08:16N 29°60' W 090°50'2 3.0
2014-Jun-23 07:32N 30°00' W 090°48'5 4.6
2014-Jun-23 06:33N 30°01' W 090°43'4 4.3
2014-Jun-23 05:33N 30°02' W 090°38'4 4.3
2014-Jun-23 04:33N 30°03' W 090°33'4 3.9
2014-Jun-23 03:33N 30°02' W 090°28'4 4.0
2014-Jun-23 02:33N 29°59' W 090°25'  
2014-Jun-16 23:24N 29°33' W 090°54'3 3.2
2014-Jun-16 22:33N 29°34' W 090°57'7 6.6
2014-Jun-16 21:33N 29°37' W 091°03'6 6.1
2014-Jun-16 20:33N 29°41' W 091°09'5 5.2
2014-Jun-16 19:33N 29°40' W 091°15'6 6.1
2014-Jun-16 18:33N 29°39' W 091°21'7 6.1
2014-Jun-16 17:30N 29°41' W 091°28'  
Track history (hours):
 
Tides and Currents Weather Stations Pressure Air Temp Water Temp Dewpoint Dewpoint Depression Visibility Wind Speed Wind Dir Waves Ship Positions

Herbert J Plaisance

More information available from US FCC via Universal Licensing System and Coast Guard Vessel Documentation Center.

Last reported at 2014-Jun-23 09:31 UTC. Time now 2014-Jul-29 08:40 UTC.
Position N 30°04' W 090°53'.
Warning: this ship's position is 35 days out of date.

Length 20 m; draft 3 m.

Type: Towing. MMSI: 367386576.

Date/timePositionNaut miles runAvg speedWind from/ knotsBaromVisibWave heightAir tempDewpointWater temp
2014-Jun-23 09:31N 30°04' W 090°53'5 3.9
2014-Jun-23 08:16N 29°60' W 090°50'2 3.0
2014-Jun-23 07:32N 30°00' W 090°48'5 4.6
2014-Jun-23 06:33N 30°01' W 090°43'4 4.3
2014-Jun-23 05:33N 30°02' W 090°38'4 4.3
2014-Jun-23 04:33N 30°03' W 090°33'4 3.9
2014-Jun-23 03:33N 30°02' W 090°28'4 4.0
2014-Jun-23 02:33N 29°59' W 090°25'  
2014-Jun-16 23:24N 29°33' W 090°54'3 3.2
2014-Jun-16 22:33N 29°34' W 090°57'7 6.6
2014-Jun-16 21:33N 29°37' W 091°03'6 6.1
2014-Jun-16 20:33N 29°41' W 091°09'5 5.2
2014-Jun-16 19:33N 29°40' W 091°15'6 6.1
2014-Jun-16 18:33N 29°39' W 091°21'7 6.1
2014-Jun-16 17:30N 29°41' W 091°28'  

Dump ship's entire track history